sensor_id;sensor_type;location;lat;lon;timestamp;pressure;altitude;pressure_sealevel;temperature;humidity
36748;BME280;22716;51.556;5.080;2023-02-13T00:01:34;102986.69;;;8.14;100.00
36748;BME280;22716;51.556;5.080;2023-02-13T00:04:04;102981.47;;;8.14;100.00
36748;BME280;22716;51.556;5.080;2023-02-13T00:06:32;102985.75;;;8.12;100.00
36748;BME280;22716;51.556;5.080;2023-02-13T00:09:01;102980.44;;;8.09;100.00
36748;BME280;22716;51.556;5.080;2023-02-13T00:11:30;102984.88;;;8.12;100.00
36748;BME280;22716;51.556;5.080;2023-02-13T00:13:58;102980.53;;;8.12;100.00
36748;BME280;22716;51.556;5.080;2023-02-13T00:16:27;102978.72;;;8.10;100.00
36748;BME280;22716;51.556;5.080;2023-02-13T00:18:58;102980.44;;;8.09;100.00
36748;BME280;22716;51.556;5.080;2023-02-13T00:21:27;102973.28;;;8.04;100.00
36748;BME280;22716;51.556;5.080;2023-02-13T00:23:56;102973.22;;;8.02;100.00
36748;BME280;22716;51.556;5.080;2023-02-13T00:26:24;102975.91;;;8.04;100.00
36748;BME280;22716;51.556;5.080;2023-02-13T00:28:55;102977.75;;;8.08;100.00
36748;BME280;22716;51.556;5.080;2023-02-13T00:31:24;102977.66;;;8.05;100.00
36748;BME280;22716;51.556;5.080;2023-02-13T00:33:52;102971.59;;;8.06;100.00
36748;BME280;22716;51.556;5.080;2023-02-13T00:36:24;102961.84;;;8.00;100.00
36748;BME280;22716;51.556;5.080;2023-02-13T00:38:53;102967.16;;;8.03;100.00
36748;BME280;22716;51.556;5.080;2023-02-13T00:41:23;102957.66;;;8.05;100.00
36748;BME280;22716;51.556;5.080;2023-02-13T00:43:52;102958.56;;;8.06;100.00
36748;BME280;22716;51.556;5.080;2023-02-13T00:46:21;102962.09;;;8.08;100.00
36748;BME280;22716;51.556;5.080;2023-02-13T00:48:49;102957.03;;;8.12;100.00
36748;BME280;22716;51.556;5.080;2023-02-13T00:51:18;102939.03;;;7.95;100.00
36748;BME280;22716;51.556;5.080;2023-02-13T00:53:49;102953.13;;;8.00;100.00
36748;BME280;22716;51.556;5.080;2023-02-13T00:56:18;102949.63;;;7.99;100.00
36748;BME280;22716;51.556;5.080;2023-02-13T00:58:47;102945.16;;;7.95;100.00
36748;BME280;22716;51.556;5.080;2023-02-13T01:01:16;102952.34;;;8.02;100.00
36748;BME280;22716;51.556;5.080;2023-02-13T01:03:45;102946.22;;;8.02;100.00
36748;BME280;22716;51.556;5.080;2023-02-13T01:06:13;102949.94;;;8.08;100.00
36748;BME280;22716;51.556;5.080;2023-02-13T01:08:42;102940.34;;;8.07;100.00
36748;BME280;22716;51.556;5.080;2023-02-13T01:11:14;102943.72;;;8.05;100.00
36748;BME280;22716;51.556;5.080;2023-02-13T01:13:44;102925.09;;;7.94;100.00
36748;BME280;22716;51.556;5.080;2023-02-13T01:16:13;102941.84;;;8.01;100.00
36748;BME280;22716;51.556;5.080;2023-02-13T01:18:42;102949.81;;;8.05;100.00
36748;BME280;22716;51.556;5.080;2023-02-13T01:21:15;102948.91;;;8.03;100.00
36748;BME280;22716;51.556;5.080;2023-02-13T01:23:45;102943.69;;;8.03;100.00
36748;BME280;22716;51.556;5.080;2023-02-13T01:26:20;102948.94;;;8.05;100.00
36748;BME280;22716;51.556;5.080;2023-02-13T01:28:52;102950.59;;;8.01;100.00
36748;BME280;22716;51.556;5.080;2023-02-13T01:31:22;102943.56;;;8.00;100.00
36748;BME280;22716;51.556;5.080;2023-02-13T01:33:54;102947.97;;;8.01;100.00
36748;BME280;22716;51.556;5.080;2023-02-13T01:36:23;102936.56;;;7.99;100.00
36748;BME280;22716;51.556;5.080;2023-02-13T01:38:53;102938.25;;;7.97;100.00
36748;BME280;22716;51.556;5.080;2023-02-13T01:41:26;102917.06;;;7.88;100.00
36748;BME280;22716;51.556;5.080;2023-02-13T01:43:56;102928.50;;;7.92;100.00
36748;BME280;22716;51.556;5.080;2023-02-13T01:46:29;102928.59;;;7.95;100.00
36748;BME280;22716;51.556;5.080;2023-02-13T01:49:03;102934.72;;;7.95;100.00
36748;BME280;22716;51.556;5.080;2023-02-13T01:51:34;102934.72;;;7.95;100.00
36748;BME280;22716;51.556;5.080;2023-02-13T01:54:06;102936.38;;;7.93;100.00
36748;BME280;22716;51.556;5.080;2023-02-13T01:56:42;102929.38;;;7.92;100.00
36748;BME280;22716;51.556;5.080;2023-02-13T01:59:16;102932.00;;;7.92;100.00
36748;BME280;22716;51.556;5.080;2023-02-13T02:01:47;102938.16;;;7.94;100.00
36748;BME280;22716;51.556;5.080;2023-02-13T02:04:19;102917.78;;;7.84;100.00
36748;BME280;22716;51.556;5.080;2023-02-13T02:06:54;102936.22;;;7.88;100.00
36748;BME280;22716;51.556;5.080;2023-02-13T02:09:27;102934.50;;;7.89;100.00
36748;BME280;22716;51.556;5.080;2023-02-13T02:12:03;102933.63;;;7.88;100.00
36748;BME280;22716;51.556;5.080;2023-02-13T02:14:33;102931.03;;;7.90;100.00
36748;BME280;22716;51.556;5.080;2023-02-13T02:17:02;102933.63;;;7.88;100.00
36748;BME280;22716;51.556;5.080;2023-02-13T02:19:39;102926.72;;;7.90;100.00
36748;BME280;22716;51.556;5.080;2023-02-13T02:22:38;102919.75;;;7.89;100.00
36748;BME280;22716;51.556;5.080;2023-02-13T02:25:38;102931.00;;;7.88;100.00
36748;BME280;22716;51.556;5.080;2023-02-13T02:31:44;102926.41;;;7.81;100.00
36748;BME280;22716;51.556;5.080;2023-02-13T02:34:21;102922.88;;;7.79;100.00
36748;BME280;22716;51.556;5.080;2023-02-13T02:37:06;102927.16;;;7.77;100.00
36748;BME280;22716;51.556;5.080;2023-02-13T02:39:43;102928.88;;;7.77;100.00
36748;BME280;22716;51.556;5.080;2023-02-13T02:42:21;102928.91;;;7.78;100.00
36748;BME280;22716;51.556;5.080;2023-02-13T02:44:56;102922.72;;;7.75;100.00
36748;BME280;22716;51.556;5.080;2023-02-13T02:47:39;102926.06;;;7.71;100.00
36748;BME280;22716;51.556;5.080;2023-02-13T02:50:33;102916.44;;;7.70;100.00
36748;BME280;22716;51.556;5.080;2023-02-13T02:53:10;102909.25;;;7.63;100.00
36748;BME280;22716;51.556;5.080;2023-02-13T02:55:47;102905.78;;;7.64;100.00
36748;BME280;22716;51.556;5.080;2023-02-13T02:58:21;102899.50;;;7.57;100.00
36748;BME280;22716;51.556;5.080;2023-02-13T03:01:08;102911.69;;;7.58;100.00
36748;BME280;22716;51.556;5.080;2023-02-13T03:03:52;102917.59;;;7.53;100.00
36748;BME280;22716;51.556;5.080;2023-02-13T03:06:39;102905.91;;;7.42;100.00
36748;BME280;22716;51.556;5.080;2023-02-13T03:09:17;102873.13;;;7.24;100.00
36748;BME280;22716;51.556;5.080;2023-02-13T03:12:01;102905.06;;;7.43;100.00
36748;BME280;22716;51.556;5.080;2023-02-13T03:14:43;102902.47;;;7.43;100.00
36748;BME280;22716;51.556;5.080;2023-02-13T03:17:15;102908.50;;;7.42;100.00
36748;BME280;22716;51.556;5.080;2023-02-13T03:20:08;102907.56;;;7.40;100.00
36748;BME280;22716;51.556;5.080;2023-02-13T03:23:02;102910.06;;;7.37;100.00
36748;BME280;22716;51.556;5.080;2023-02-13T03:25:37;102899.53;;;7.33;100.00
36748;BME280;22716;51.556;5.080;2023-02-13T03:28:11;102909.19;;;7.36;100.00
36748;BME280;22716;51.556;5.080;2023-02-13T03:31:00;102909.06;;;7.33;100.00
36748;BME280;22716;51.556;5.080;2023-02-13T03:33:45;102904.53;;;7.27;100.00
36748;BME280;22716;51.556;5.080;2023-02-13T03:36:28;102900.09;;;7.25;100.00
36748;BME280;22716;51.556;5.080;2023-02-13T03:39:18;102907.84;;;7.23;100.00
36748;BME280;22716;51.556;5.080;2023-02-13T03:41:51;102900.84;;;7.22;100.00
36748;BME280;22716;51.556;5.080;2023-02-13T03:44:26;102898.88;;;7.15;100.00
36748;BME280;22716;51.556;5.080;2023-02-13T03:46:59;102913.78;;;7.19;100.00
36748;BME280;22716;51.556;5.080;2023-02-13T03:49:30;102923.28;;;7.17;100.00
36748;BME280;22716;51.556;5.080;2023-02-13T03:52:24;102921.47;;;7.16;100.00
36748;BME280;22716;51.556;5.080;2023-02-13T03:54:56;102924.94;;;7.15;100.00
36748;BME280;22716;51.556;5.080;2023-02-13T03:57:39;102908.97;;;7.06;100.00
36748;BME280;22716;51.556;5.080;2023-02-13T04:00:24;102916.81;;;7.08;100.00
36748;BME280;22716;51.556;5.080;2023-02-13T04:03:00;102919.38;;;7.06;100.00
36748;BME280;22716;51.556;5.080;2023-02-13T04:05:37;102920.16;;;7.04;100.00
36748;BME280;22716;51.556;5.080;2023-02-13T04:08:09;102919.09;;;6.99;100.00
36748;BME280;22716;51.556;5.080;2023-02-13T04:10:43;102899.53;;;6.86;100.00
36748;BME280;22716;51.556;5.080;2023-02-13T04:13:17;102913.56;;;6.90;100.00
36748;BME280;22716;51.556;5.080;2023-02-13T04:15:53;102879.91;;;6.72;100.00
36748;BME280;22716;51.556;5.080;2023-02-13T04:18:26;102904.56;;;6.82;100.00
36748;BME280;22716;51.556;5.080;2023-02-13T04:21:00;102908.88;;;6.81;100.00
36748;BME280;22716;51.556;5.080;2023-02-13T04:23:31;102914.81;;;6.77;100.00
36748;BME280;22716;51.556;5.080;2023-02-13T04:26:03;102891.97;;;6.70;100.00
36748;BME280;22716;51.556;5.080;2023-02-13T04:28:33;102909.59;;;6.77;100.00
36748;BME280;22716;51.556;5.080;2023-02-13T04:31:01;102907.81;;;6.76;100.00
36748;BME280;22716;51.556;5.080;2023-02-13T04:33:30;102905.94;;;6.72;100.00
36748;BME280;22716;51.556;5.080;2023-02-13T04:35:59;102904.03;;;6.68;100.00
36748;BME280;22716;51.556;5.080;2023-02-13T04:38:30;102897.00;;;6.65;100.00
36748;BME280;22716;51.556;5.080;2023-02-13T04:40:59;102893.38;;;6.62;100.00
36748;BME280;22716;51.556;5.080;2023-02-13T04:43:28;102902.03;;;6.61;100.00
36748;BME280;22716;51.556;5.080;2023-02-13T04:45:56;102901.09;;;6.59;100.00
36748;BME280;22716;51.556;5.080;2023-02-13T04:48:25;102900.16;;;6.57;100.00
36748;BME280;22716;51.556;5.080;2023-02-13T04:50:54;102893.13;;;6.54;100.00
36748;BME280;22716;51.556;5.080;2023-02-13T04:53:23;102896.53;;;6.53;100.00
36748;BME280;22716;51.556;5.080;2023-02-13T04:55:54;102893.72;;;6.49;100.00
36748;BME280;22716;51.556;5.080;2023-02-13T04:58:23;102898.00;;;6.47;100.00
36748;BME280;22716;51.556;5.080;2023-02-13T05:00:52;102895.25;;;6.42;100.00
36748;BME280;22716;51.556;5.080;2023-02-13T05:03:20;102890.69;;;6.37;100.00
36748;BME280;22716;51.556;5.080;2023-02-13T05:05:49;102901.22;;;6.40;100.00
36748;BME280;22716;51.556;5.080;2023-02-13T05:08:19;102882.69;;;6.32;100.00
36748;BME280;22716;51.556;5.080;2023-02-13T05:10:47;102888.81;;;6.34;100.00
36748;BME280;22716;51.556;5.080;2023-02-13T05:13:19;102893.97;;;6.33;100.00
36748;BME280;22716;51.556;5.080;2023-02-13T05:15:48;102893.75;;;6.27;100.00
36748;BME280;22716;51.556;5.080;2023-02-13T05:18:17;102893.63;;;6.24;100.00
36748;BME280;22716;51.556;5.080;2023-02-13T05:20:46;102896.09;;;6.20;100.00
36748;BME280;22716;51.556;5.080;2023-02-13T05:23:35;102888.81;;;6.12;100.00
36748;BME280;22716;51.556;5.080;2023-02-13T05:26:01;102904.59;;;6.16;100.00
36748;BME280;22716;51.556;5.080;2023-02-13T05:28:32;102905.50;;;6.17;100.00
36748;BME280;22716;51.556;5.080;2023-02-13T05:31:14;102901.91;;;6.13;100.00
36748;BME280;22716;51.556;5.080;2023-02-13T05:33:42;102899.22;;;6.12;100.00
36748;BME280;22716;51.556;5.080;2023-02-13T05:36:11;102902.41;;;6.05;100.00
36748;BME280;22716;51.556;5.080;2023-02-13T05:38:41;102903.28;;;6.05;100.00
36748;BME280;22716;51.556;5.080;2023-02-13T05:41:10;102878.38;;;5.90;100.00
36748;BME280;22716;51.556;5.080;2023-02-13T05:43:42;102897.72;;;5.96;100.00
36748;BME280;22716;51.556;5.080;2023-02-13T05:46:11;102893.16;;;5.91;100.00
36748;BME280;22716;51.556;5.080;2023-02-13T05:48:40;102892.25;;;5.90;100.00
36748;BME280;22716;51.556;5.080;2023-02-13T05:51:09;102897.47;;;5.90;100.00
36748;BME280;22716;51.556;5.080;2023-02-13T05:53:37;102897.28;;;5.86;100.00
36748;BME280;22716;51.556;5.080;2023-02-13T05:56:06;102894.47;;;5.81;100.00
36748;BME280;22716;51.556;5.080;2023-02-13T05:58:35;102899.59;;;5.80;100.00
36748;BME280;22716;51.556;5.080;2023-02-13T06:01:07;102901.25;;;5.78;100.00
36748;BME280;22716;51.556;5.080;2023-02-13T06:03:35;102900.38;;;5.77;100.00
36748;BME280;22716;51.556;5.080;2023-02-13T06:06:05;102893.06;;;5.69;100.00
36748;BME280;22716;51.556;5.080;2023-02-13T06:08:34;102900.03;;;5.70;100.00
36748;BME280;22716;51.556;5.080;2023-02-13T06:11:03;102898.91;;;5.63;100.00
36748;BME280;22716;51.556;5.080;2023-02-13T06:13:32;102906.84;;;5.66;100.00
36748;BME280;22716;51.556;5.080;2023-02-13T06:16:01;102892.69;;;5.59;100.00
36748;BME280;22716;51.556;5.080;2023-02-13T06:18:32;102899.78;;;5.63;100.00
36748;BME280;22716;51.556;5.080;2023-02-13T06:21:02;102900.47;;;5.59;100.00
36748;BME280;22716;51.556;5.080;2023-02-13T06:23:32;102900.41;;;5.58;100.00
36748;BME280;22716;51.556;5.080;2023-02-13T06:26:02;102898.66;;;5.57;100.00
36748;BME280;22716;51.556;5.080;2023-02-13T06:28:32;102891.34;;;5.48;100.00
36748;BME280;22716;51.556;5.080;2023-02-13T06:31:01;102909.72;;;5.53;100.00
36748;BME280;22716;51.556;5.080;2023-02-13T06:33:32;102889.03;;;5.35;100.00
36748;BME280;22716;51.556;5.080;2023-02-13T06:36:01;102911.25;;;5.48;100.00
36748;BME280;22716;51.556;5.080;2023-02-13T06:38:29;102916.22;;;5.43;100.00
36748;BME280;22716;51.556;5.080;2023-02-13T06:40:59;102909.97;;;5.38;100.00
36748;BME280;22716;51.556;5.080;2023-02-13T06:43:29;102912.50;;;5.37;100.00
36748;BME280;22716;51.556;5.080;2023-02-13T06:45:58;102899.28;;;5.32;100.00
36748;BME280;22716;51.556;5.080;2023-02-13T06:48:27;102902.72;;;5.31;100.00
36748;BME280;22716;51.556;5.080;2023-02-13T06:50:58;102904.44;;;5.31;100.00
36748;BME280;22716;51.556;5.080;2023-02-13T06:53:27;102905.88;;;5.24;100.00
36748;BME280;22716;51.556;5.080;2023-02-13T06:55:56;102907.72;;;5.27;100.00
36748;BME280;22716;51.556;5.080;2023-02-13T06:58:25;102892.78;;;5.23;100.00
36748;BME280;22716;51.556;5.080;2023-02-13T07:00:54;102899.66;;;5.21;100.00
36748;BME280;22716;51.556;5.080;2023-02-13T07:03:22;102893.22;;;5.13;100.00
36748;BME280;22716;51.556;5.080;2023-02-13T07:05:51;102898.22;;;5.08;100.00
36748;BME280;22716;51.556;5.080;2023-02-13T07:08:23;102908.69;;;5.09;100.00
36748;BME280;22716;51.556;5.080;2023-02-13T07:10:52;102907.75;;;5.07;100.00
36748;BME280;22716;51.556;5.080;2023-02-13T07:13:21;102909.44;;;5.07;100.00
36748;BME280;22716;51.556;5.080;2023-02-13T07:15:49;102911.91;;;5.04;100.00
36748;BME280;22716;51.556;5.080;2023-02-13T07:18:18;102911.69;;;4.99;100.00
36748;BME280;22716;51.556;5.080;2023-02-13T07:20:47;102917.72;;;4.98;100.00
36748;BME280;22716;51.556;5.080;2023-02-13T07:23:15;102919.41;;;4.98;100.00
36748;BME280;22716;51.556;5.080;2023-02-13T07:25:47;102912.53;;;4.98;100.00
36748;BME280;22716;51.556;5.080;2023-02-13T07:28:15;102914.13;;;4.96;100.00
36748;BME280;22716;51.556;5.080;2023-02-13T07:30:44;102907.81;;;4.90;100.00
36748;BME280;22716;51.556;5.080;2023-02-13T07:33:13;102918.88;;;4.86;100.00
36748;BME280;22716;51.556;5.080;2023-02-13T07:35:45;102923.31;;;4.88;100.00
36748;BME280;22716;51.556;5.080;2023-02-13T07:38:14;102912.09;;;4.89;100.00
36748;BME280;22716;51.556;5.080;2023-02-13T07:40:44;102922.50;;;4.89;100.00
36748;BME280;22716;51.556;5.080;2023-02-13T07:43:15;102917.63;;;4.78;100.00
36748;BME280;22716;51.556;5.080;2023-02-13T07:45:44;102928.34;;;4.85;100.00
36748;BME280;22716;51.556;5.080;2023-02-13T07:48:13;102915.94;;;4.78;100.00
36748;BME280;22716;51.556;5.080;2023-02-13T07:50:42;102932.47;;;4.80;100.00
36748;BME280;22716;51.556;5.080;2023-02-13T07:53:10;102927.03;;;4.76;100.00
36748;BME280;22716;51.556;5.080;2023-02-13T07:55:39;102926.84;;;4.71;100.00
36748;BME280;22716;51.556;5.080;2023-02-13T07:58:08;102932.03;;;4.71;100.00
36748;BME280;22716;51.556;5.080;2023-02-13T08:00:39;102927.59;;;4.69;100.00
36748;BME280;22716;51.556;5.080;2023-02-13T08:03:08;102933.41;;;4.63;100.00
36748;BME280;22716;51.556;5.080;2023-02-13T08:05:37;102929.75;;;4.60;100.00
36748;BME280;22716;51.556;5.080;2023-02-13T08:08:06;102932.34;;;4.60;100.00
36748;BME280;22716;51.556;5.080;2023-02-13T08:10:35;102933.31;;;4.62;100.00
36748;BME280;22716;51.556;5.080;2023-02-13T08:13:17;102928.94;;;4.61;100.00
36748;BME280;22716;51.556;5.080;2023-02-13T08:15:49;102944.81;;;4.67;100.00
36748;BME280;22716;51.556;5.080;2023-02-13T08:18:17;102944.06;;;4.69;100.00
36748;BME280;22716;51.556;5.080;2023-02-13T08:20:46;102952.66;;;4.68;100.00
36748;BME280;22716;51.556;5.080;2023-02-13T08:23:15;102939.75;;;4.70;100.00
36748;BME280;22716;51.556;5.080;2023-02-13T08:25:43;102942.56;;;4.74;100.00
36748;BME280;22716;51.556;5.080;2023-02-13T08:28:14;102957.41;;;4.77;100.00
36748;BME280;22716;51.556;5.080;2023-02-13T08:30:43;102956.50;;;4.76;100.00
36748;BME280;22716;51.556;5.080;2023-02-13T08:33:14;102955.84;;;4.80;100.00
36748;BME280;22716;51.556;5.080;2023-02-13T08:35:43;102945.59;;;4.83;100.00
36748;BME280;22716;51.556;5.080;2023-02-13T08:38:12;102941.91;;;4.78;100.00
36748;BME280;22716;51.556;5.080;2023-02-13T08:40:40;102953.66;;;4.89;100.00
36748;BME280;22716;51.556;5.080;2023-02-13T08:43:09;102956.47;;;4.94;100.00
36748;BME280;22716;51.556;5.080;2023-02-13T08:45:38;102945.25;;;4.95;100.00
36748;BME280;22716;51.556;5.080;2023-02-13T08:48:07;102934.59;;;4.89;100.00
36748;BME280;22716;51.556;5.080;2023-02-13T08:50:38;102955.19;;;5.03;100.00
36748;BME280;22716;51.556;5.080;2023-02-13T08:53:07;102962.06;;;5.03;100.00
36748;BME280;22716;51.556;5.080;2023-02-13T08:55:35;102961.03;;;4.99;100.00
36748;BME280;22716;51.556;5.080;2023-02-13T08:58:04;102959.28;;;4.98;100.00
36748;BME280;22716;51.556;5.080;2023-02-13T09:00:33;102966.19;;;4.98;100.00
36748;BME280;22716;51.556;5.080;2023-02-13T09:03:02;102966.19;;;4.98;100.00
36748;BME280;22716;51.556;5.080;2023-02-13T09:05:31;102961.94;;;5.00;100.00
36748;BME280;22716;51.556;5.080;2023-02-13T09:08:03;102966.75;;;5.10;100.00
36748;BME280;22716;51.556;5.080;2023-02-13T09:10:33;102970.53;;;5.17;100.00
36748;BME280;22716;51.556;5.080;2023-02-13T09:13:02;102967.50;;;5.27;100.00
36748;BME280;22716;51.556;5.080;2023-02-13T09:15:31;102962.44;;;5.30;100.00
36748;BME280;22716;51.556;5.080;2023-02-13T09:18:00;102945.94;;;5.29;100.00
36748;BME280;22716;51.556;5.080;2023-02-13T09:20:29;102966.75;;;5.48;100.00
36748;BME280;22716;51.556;5.080;2023-02-13T09:22:58;102952.56;;;5.42;100.00
36748;BME280;22716;51.556;5.080;2023-02-13T09:25:30;102976.66;;;5.57;100.00
36748;BME280;22716;51.556;5.080;2023-02-13T09:27:59;102977.59;;;5.59;100.00
36748;BME280;22716;51.556;5.080;2023-02-13T09:30:27;102973.44;;;5.62;100.00
36748;BME280;22716;51.556;5.080;2023-02-13T09:32:56;102979.06;;;5.73;100.00
36748;BME280;22716;51.556;5.080;2023-02-13T09:35:25;102980.31;;;5.81;100.00
36748;BME280;22716;51.556;5.080;2023-02-13T09:37:54;102970.91;;;5.85;100.00
36748;BME280;22716;51.556;5.080;2023-02-13T09:40:27;102973.88;;;5.92;100.00
36748;BME280;22716;51.556;5.080;2023-02-13T09:43:04;102975.22;;;6.03;100.00
36748;BME280;22716;51.556;5.080;2023-02-13T09:45:35;102973.00;;;6.12;100.00
36748;BME280;22716;51.556;5.080;2023-02-13T09:48:05;102972.34;;;6.18;100.00
36748;BME280;22716;51.556;5.080;2023-02-13T09:50:34;102976.16;;;6.26;100.00
36748;BME280;22716;51.556;5.080;2023-02-13T09:53:04;102979.00;;;6.32;100.00
36748;BME280;22716;51.556;5.080;2023-02-13T09:55:39;102978.25;;;6.35;100.00
36748;BME280;22716;51.556;5.080;2023-02-13T09:58:29;102976.00;;;6.44;100.00
36748;BME280;22716;51.556;5.080;2023-02-13T10:01:03;102973.66;;;6.50;100.00
36748;BME280;22716;51.556;5.080;2023-02-13T10:03:39;102972.22;;;6.58;100.00
36748;BME280;22716;51.556;5.080;2023-02-13T10:06:17;102970.72;;;6.63;100.00
36748;BME280;22716;51.556;5.080;2023-02-13T10:09:02;102973.69;;;6.72;100.00
36748;BME280;22716;51.556;5.080;2023-02-13T10:11:59;102968.41;;;6.70;100.00
36748;BME280;22716;51.556;5.080;2023-02-13T10:14:43;102975.09;;;6.86;100.00
36748;BME280;22716;51.556;5.080;2023-02-13T10:17:15;102974.47;;;6.93;100.00
36748;BME280;22716;51.556;5.080;2023-02-13T10:19:49;102964.19;;;6.96;100.00
36748;BME280;22716;51.556;5.080;2023-02-13T10:22:24;102973.31;;;7.07;100.00
36748;BME280;22716;51.556;5.080;2023-02-13T10:24:56;102971.63;;;7.09;100.00
36748;BME280;22716;51.556;5.080;2023-02-13T10:27:33;102971.78;;;7.14;100.00
36748;BME280;22716;51.556;5.080;2023-02-13T10:30:13;102967.56;;;7.16;100.00
36748;BME280;22716;51.556;5.080;2023-02-13T10:32:53;102972.91;;;7.20;100.00
36748;BME280;22716;51.556;5.080;2023-02-13T10:35:37;102966.88;;;7.21;100.00
36748;BME280;22716;51.556;5.080;2023-02-13T10:38:13;102962.03;;;7.32;100.00
36748;BME280;22716;51.556;5.080;2023-02-13T10:40:56;102971.81;;;7.38;100.00
36748;BME280;22716;51.556;5.080;2023-02-13T10:43:29;102963.19;;;7.40;100.00
36748;BME280;22716;51.556;5.080;2023-02-13T10:46:12;102969.50;;;7.45;100.00
36748;BME280;22716;51.556;5.080;2023-02-13T10:49:08;102962.63;;;7.49;100.00
36748;BME280;22716;51.556;5.080;2023-02-13T10:51:46;102958.59;;;7.57;100.00
36748;BME280;22716;51.556;5.080;2023-02-13T10:54:27;102950.94;;;7.61;100.00
36748;BME280;22716;51.556;5.080;2023-02-13T10:57:08;102944.88;;;7.62;100.00
36748;BME280;22716;51.556;5.080;2023-02-13T10:59:52;102949.63;;;7.74;100.00
36748;BME280;22716;51.556;5.080;2023-02-13T11:02:28;102950.84;;;7.83;100.00
36748;BME280;22716;51.556;5.080;2023-02-13T11:05:01;102942.22;;;7.86;100.00
36748;BME280;22716;51.556;5.080;2023-02-13T11:07:35;102939.06;;;7.96;100.00
36748;BME280;22716;51.556;5.080;2023-02-13T11:10:14;102944.66;;;8.07;100.00
36748;BME280;22716;51.556;5.080;2023-02-13T11:12:44;102943.97;;;8.12;100.00
36748;BME280;22716;51.556;5.080;2023-02-13T11:15:24;102942.56;;;8.22;100.00
36748;BME280;22716;51.556;5.080;2023-02-13T11:17:58;102940.25;;;8.31;100.00
36748;BME280;22716;51.556;5.080;2023-02-13T11:20:32;102931.00;;;8.40;100.00
36748;BME280;22716;51.556;5.080;2023-02-13T11:23:32;102932.41;;;8.58;100.00
36748;BME280;22716;51.556;5.080;2023-02-13T11:26:04;102926.66;;;8.69;100.00
36748;BME280;22716;51.556;5.080;2023-02-13T11:28:37;102929.63;;;8.81;100.00
36748;BME280;22716;51.556;5.080;2023-02-13T11:31:12;102924.78;;;8.93;100.00
36748;BME280;22716;51.556;5.080;2023-02-13T11:33:44;102930.28;;;9.02;100.00
36748;BME280;22716;51.556;5.080;2023-02-13T11:36:14;102926.31;;;9.17;100.00
36748;BME280;22716;51.556;5.080;2023-02-13T11:38:43;102928.38;;;9.28;100.00
36748;BME280;22716;51.556;5.080;2023-02-13T11:41:14;102919.97;;;9.38;100.00
36748;BME280;22716;51.556;5.080;2023-02-13T11:43:46;102916.72;;;9.48;100.00
36748;BME280;22716;51.556;5.080;2023-02-13T11:46:20;102917.94;;;9.60;100.00
36748;BME280;22716;51.556;5.080;2023-02-13T11:49:00;102917.31;;;9.70;100.00
36748;BME280;22716;51.556;5.080;2023-02-13T11:51:41;102909.75;;;9.82;100.00
36748;BME280;22716;51.556;5.080;2023-02-13T11:54:29;102909.34;;;9.99;100.00
36748;BME280;22716;51.556;5.080;2023-02-13T11:57:01;102912.38;;;10.16;100.00
36748;BME280;22716;51.556;5.080;2023-02-13T11:59:38;102904.81;;;10.28;100.00
36748;BME280;22716;51.556;5.080;2023-02-13T12:02:16;102911.25;;;10.41;100.00
36748;BME280;22716;51.556;5.080;2023-02-13T12:04:50;102900.16;;;10.52;100.00
36748;BME280;22716;51.556;5.080;2023-02-13T12:07:23;102900.34;;;10.61;100.00
36748;BME280;22716;51.556;5.080;2023-02-13T12:09:58;102906.78;;;10.76;100.00
36748;BME280;22716;51.556;5.080;2023-02-13T12:12:36;102892.22;;;10.90;100.00
36748;BME280;22716;51.556;5.080;2023-02-13T12:15:15;102890.75;;;11.04;100.00
36748;BME280;22716;51.556;5.080;2023-02-13T12:17:49;102881.31;;;11.12;100.00
36748;BME280;22716;51.556;5.080;2023-02-13T12:20:26;102885.03;;;11.23;100.00
36748;BME280;22716;51.556;5.080;2023-02-13T12:23:04;102879.13;;;11.36;100.00
36748;BME280;22716;51.556;5.080;2023-02-13T12:25:44;102881.13;;;11.49;100.00
36748;BME280;22716;51.556;5.080;2023-02-13T12:28:19;102876.09;;;11.61;100.00
36748;BME280;22716;51.556;5.080;2023-02-13T12:31:18;102879.13;;;11.83;100.00
36748;BME280;22716;51.556;5.080;2023-02-13T12:34:23;102874.88;;;11.91;100.00
36748;BME280;22716;51.556;5.080;2023-02-13T12:37:10;102868.69;;;11.86;100.00
36748;BME280;22716;51.556;5.080;2023-02-13T12:39:49;102862.34;;;11.74;100.00
36748;BME280;22716;51.556;5.080;2023-02-13T12:42:32;102856.81;;;11.59;100.00
36748;BME280;22716;51.556;5.080;2023-02-13T12:45:25;102857.50;;;11.49;100.00
36748;BME280;22716;51.556;5.080;2023-02-13T12:48:14;102856.38;;;11.35;100.00
36748;BME280;22716;51.556;5.080;2023-02-13T12:50:56;102850.91;;;11.23;100.00
36748;BME280;22716;51.556;5.080;2023-02-13T12:53:51;102843.81;;;11.17;100.00
36748;BME280;22716;51.556;5.080;2023-02-13T12:56:45;102858.59;;;11.12;100.00
36748;BME280;22716;51.556;5.080;2023-02-13T12:59:23;102845.31;;;11.05;100.00
36748;BME280;22716;51.556;5.080;2023-02-13T13:02:31;102846.97;;;11.01;100.00
36748;BME280;22716;51.556;5.080;2023-02-13T13:05:16;102846.00;;;10.96;100.00
36748;BME280;22716;51.556;5.080;2023-02-13T13:08:08;102840.69;;;10.92;100.00
36748;BME280;22716;51.556;5.080;2023-02-13T13:10:53;102840.69;;;10.92;100.00
36748;BME280;22716;51.556;5.080;2023-02-13T13:13:36;102835.38;;;10.89;100.00
36748;BME280;22716;51.556;5.080;2023-02-13T13:16:15;102835.28;;;10.84;100.00
36748;BME280;22716;51.556;5.080;2023-02-13T13:18:56;102832.75;;;10.89;100.00
36748;BME280;22716;51.556;5.080;2023-02-13T13:21:38;102830.94;;;10.86;100.00
36748;BME280;22716;51.556;5.080;2023-02-13T13:24:21;102823.88;;;10.82;100.00
36748;BME280;22716;51.556;5.080;2023-02-13T13:26:55;102822.91;;;10.77;100.00